Time;durP1;ratioP1;P1;durP2;ratioP2;P2;SDS_P1;SDS_P2;PMS_P1;PMS_P2;Temp;Humidity;BMP_temperature;BMP_pressure;BME280_temperature;BME280_humidity;BME280_pressure;Samples;Min_cycle;Max_cycle;Signal;HPM_P1;HPM_P2
2023/11/08 00:01:47;;;;;;;8.60;2.90;;;9.90;99.90;;;;;;5019412;28;20018;-71
2023/11/08 00:04:14;;;;;;;8.13;3.38;;;9.90;99.90;;;;;;5019510;28;20534;-71
2023/11/08 00:06:39;;;;;;;12.27;3.45;;;9.90;99.90;;;;;;5030043;28;20086;-72
2023/11/08 00:09:05;;;;;;;6.75;3.25;;;9.90;99.90;;;;;;5026746;28;20116;-71
2023/11/08 00:11:32;;;;;;;12.15;3.30;;;10.00;99.90;;;;;;5019183;28;20022;-71
2023/11/08 00:13:57;;;;;;;7.97;3.17;;;9.90;99.90;;;;;;5018685;28;20482;-71
2023/11/08 00:16:23;;;;;;;8.15;3.38;;;9.90;99.90;;;;;;5020653;28;20022;-71
2023/11/08 00:18:49;;;;;;;15.30;4.03;;;9.90;99.90;;;;;;5016429;28;20378;-71
2023/11/08 00:21:14;;;;;;;14.52;3.10;;;9.90;99.90;;;;;;5019338;28;20070;-71
2023/11/08 00:23:41;;;;;;;5.80;3.03;;;9.90;99.90;;;;;;5024099;28;20017;-72
2023/11/08 00:26:07;;;;;;;9.27;2.95;;;9.90;99.90;;;;;;5021899;28;20026;-71
2023/11/08 00:28:33;;;;;;;9.30;3.47;;;9.90;99.90;;;;;;5026758;28;20022;-71
2023/11/08 00:30:59;;;;;;;10.93;3.33;;;9.80;99.90;;;;;;5020700;28;20117;-72
2023/11/08 00:33:25;;;;;;;7.75;3.25;;;9.70;99.90;;;;;;5021563;28;20109;-71
2023/11/08 00:35:53;;;;;;;6.03;3.42;;;9.70;99.90;;;;;;5017140;28;20486;-71
2023/11/08 00:38:18;;;;;;;5.47;2.67;;;9.70;99.90;;;;;;5018665;28;20029;-71
2023/11/08 00:40:44;;;;;;;9.75;3.25;;;9.80;99.90;;;;;;5029313;28;20384;-72
2023/11/08 00:43:10;;;;;;;6.95;3.13;;;9.80;99.90;;;;;;5024767;28;20565;-71
2023/11/08 00:45:36;;;;;;;10.30;2.83;;;9.80;99.90;;;;;;5022649;28;20021;-71
2023/11/08 00:48:02;;;;;;;5.97;2.83;;;9.70;99.90;;;;;;5018927;28;20029;-71
2023/11/08 00:50:29;;;;;;;9.82;3.00;;;9.80;99.90;;;;;;5016545;28;20389;-73
2023/11/08 00:52:58;;;;;;;7.70;3.33;;;9.70;99.90;;;;;;5025628;28;20044;-71
2023/11/08 00:55:24;;;;;;;7.28;3.15;;;9.80;99.90;;;;;;5025771;28;20022;-70
2023/11/08 00:57:50;;;;;;;8.07;2.78;;;9.80;99.90;;;;;;5018624;28;20034;-76
2023/11/08 01:00:16;;;;;;;5.70;2.47;;;9.70;99.90;;;;;;5019245;28;20025;-77
2023/11/08 01:02:42;;;;;;;8.10;2.70;;;9.70;99.90;;;;;;5021153;28;20034;-71
2023/11/08 01:05:09;;;;;;;10.07;3.15;;;9.70;99.90;;;;;;5022700;28;20025;-70
2023/11/08 01:07:36;;;;;;;7.15;2.50;;;9.70;99.90;;;;;;5024921;28;20109;-71
2023/11/08 01:10:02;;;;;;;5.28;2.60;;;9.70;99.90;;;;;;5018799;28;20030;-71
2023/11/08 01:12:28;;;;;;;7.65;2.20;;;9.70;99.90;;;;;;5023741;27;20113;-72
2023/11/08 01:14:53;;;;;;;11.02;2.42;;;9.70;99.90;;;;;;5022535;28;20155;-72
2023/11/08 01:17:19;;;;;;;7.95;2.53;;;9.70;99.90;;;;;;5026161;28;20523;-72
2023/11/08 01:19:45;;;;;;;7.30;2.42;;;9.70;99.90;;;;;;5025270;28;20029;-71
2023/11/08 01:22:11;;;;;;;7.85;2.40;;;9.70;99.90;;;;;;5026898;28;20551;-71
2023/11/08 01:24:38;;;;;;;10.48;2.90;;;9.70;99.90;;;;;;5018449;28;20021;-71
2023/11/08 01:27:04;;;;;;;4.95;2.33;;;9.70;99.90;;;;;;5023959;28;20394;-71
2023/11/08 01:29:30;;;;;;;6.13;2.17;;;9.60;99.90;;;;;;5022379;28;20029;-71
2023/11/08 01:31:56;;;;;;;11.30;3.10;;;9.70;99.90;;;;;;5020481;28;20030;-71
2023/11/08 01:34:21;;;;;;;7.97;2.65;;;9.60;99.90;;;;;;5022389;28;20042;-71
2023/11/08 01:36:48;;;;;;;9.70;2.53;;;9.50;99.90;;;;;;5020777;28;20030;-71
2023/11/08 01:39:13;;;;;;;6.10;2.03;;;9.60;99.90;;;;;;5015374;28;20037;-76
2023/11/08 01:41:45;;;;;;;6.47;2.30;;;9.60;99.90;;;;;;5020614;28;20030;-70
2023/11/08 01:44:11;;;;;;;6.95;2.10;;;9.50;99.90;;;;;;5022877;28;20025;-71
2023/11/08 01:46:37;;;;;;;8.18;2.17;;;9.60;99.90;;;;;;5016474;28;20029;-71
2023/11/08 01:49:04;;;;;;;4.50;2.20;;;9.60;99.90;;;;;;5020309;28;20033;-71
2023/11/08 01:51:30;;;;;;;9.15;2.17;;;9.60;99.90;;;;;;5024865;28;20033;-70
2023/11/08 01:53:57;;;;;;;9.43;2.75;;;9.60;99.90;;;;;;5018689;28;20503;-71
2023/11/08 01:56:23;;;;;;;7.03;2.33;;;9.60;99.90;;;;;;5023892;28;20022;-73
2023/11/08 01:58:51;;;;;;;5.05;2.25;;;9.50;99.90;;;;;;5021051;28;20105;-70
2023/11/08 02:01:18;;;;;;;8.40;2.55;;;9.50;99.90;;;;;;5014811;28;20436;-73
2023/11/08 02:03:46;;;;;;;6.18;2.38;;;9.50;99.90;;;;;;5022226;28;20018;-71
2023/11/08 02:06:13;;;;;;;8.05;1.92;;;9.40;99.90;;;;;;5019382;28;20037;-72
2023/11/08 02:08:39;;;;;;;6.80;1.88;;;9.30;99.90;;;;;;5018448;28;20056;-71
2023/11/08 02:11:07;;;;;;;6.47;2.00;;;9.30;99.90;;;;;;5012648;28;20030;-71
2023/11/08 02:13:36;;;;;;;8.10;2.42;;;9.30;99.90;;;;;;5023341;28;20036;-70
2023/11/08 02:16:02;;;;;;;4.93;1.60;;;9.30;99.90;;;;;;5021705;28;20029;-71
2023/11/08 02:18:30;;;;;;;4.45;2.05;;;9.40;99.90;;;;;;5018310;28;20025;-74
2023/11/08 02:20:57;;;;;;;5.28;2.15;;;9.30;99.90;;;;;;5019765;28;20116;-71
2023/11/08 02:23:23;;;;;;;9.35;2.50;;;9.40;99.90;;;;;;5028469;28;20032;-71
2023/11/08 02:25:48;;;;;;;8.05;2.28;;;9.40;99.90;;;;;;5026544;28;20030;-71
2023/11/08 02:28:14;;;;;;;6.70;1.98;;;9.30;99.90;;;;;;5019175;28;20435;-71
2023/11/08 02:30:40;;;;;;;6.53;2.20;;;9.30;99.90;;;;;;5023455;28;20523;-71
2023/11/08 02:33:08;;;;;;;6.05;2.00;;;9.40;99.90;;;;;;5026394;28;20037;-70
2023/11/08 02:35:34;;;;;;;7.70;2.55;;;9.40;99.90;;;;;;5015722;28;20021;-71
2023/11/08 02:38:00;;;;;;;8.68;2.13;;;9.40;99.90;;;;;;5017648;28;20033;-70
2023/11/08 02:40:25;;;;;;;7.03;1.80;;;9.50;99.90;;;;;;5020792;27;20501;-70
2023/11/08 02:42:51;;;;;;;6.45;1.63;;;9.50;99.90;;;;;;5029194;28;20547;-71
2023/11/08 02:45:16;;;;;;;5.30;1.83;;;9.50;99.90;;;;;;5015602;28;20712;-71
2023/11/08 02:47:42;;;;;;;4.32;1.65;;;9.40;99.90;;;;;;5017306;28;20486;-70
2023/11/08 02:50:08;;;;;;;6.47;2.25;;;9.50;99.90;;;;;;5023133;28;20504;-69
2023/11/08 02:52:34;;;;;;;9.13;2.00;;;9.40;99.90;;;;;;5023537;28;20034;-70
2023/11/08 02:55:01;;;;;;;7.38;2.72;;;9.40;99.90;;;;;;5020125;28;20062;-70
2023/11/08 02:57:27;;;;;;;4.82;2.08;;;9.30;99.90;;;;;;5015630;28;20501;-70
2023/11/08 02:59:53;;;;;;;4.47;1.60;;;9.40;99.90;;;;;;5024366;28;20025;-74
2023/11/08 03:02:22;;;;;;;6.13;2.08;;;9.30;99.90;;;;;;5023973;28;21016;-71
2023/11/08 03:04:48;;;;;;;7.10;1.60;;;9.30;99.90;;;;;;5019543;28;20030;-71
2023/11/08 03:07:13;;;;;;;5.13;1.98;;;9.30;99.90;;;;;;5017831;28;20034;-74
2023/11/08 03:09:40;;;;;;;6.15;1.70;;;9.30;99.90;;;;;;5022612;28;20886;-70
2023/11/08 03:12:07;;;;;;;3.92;1.63;;;9.30;99.90;;;;;;5024717;27;20378;-71
2023/11/08 03:14:32;;;;;;;5.20;1.65;;;9.20;99.90;;;;;;5023077;28;20033;-70
2023/11/08 03:16:58;;;;;;;7.20;1.70;;;9.30;99.90;;;;;;5016994;28;20025;-71
2023/11/08 03:19:24;;;;;;;5.90;2.33;;;9.20;99.90;;;;;;5017487;28;20036;-70
2023/11/08 03:21:52;;;;;;;3.88;1.73;;;9.30;99.90;;;;;;5024046;28;20510;-73
2023/11/08 03:24:18;;;;;;;5.22;1.63;;;9.30;99.90;;;;;;5035112;28;20540;-71
2023/11/08 03:26:45;;;;;;;3.88;1.70;;;9.30;99.90;;;;;;5018337;28;20017;-71
2023/11/08 03:29:10;;;;;;;6.18;1.75;;;9.30;99.90;;;;;;5019996;28;20033;-70
2023/11/08 03:31:36;;;;;;;3.30;1.30;;;9.20;99.90;;;;;;5025695;28;20070;-71
2023/11/08 03:34:03;;;;;;;9.30;2.03;;;9.20;99.90;;;;;;5021423;28;20048;-70
2023/11/08 03:36:29;;;;;;;6.45;1.80;;;9.20;99.90;;;;;;5023937;27;20108;-70
2023/11/08 03:38:59;;;;;;;6.72;2.22;;;9.20;99.90;;;;;;5021738;28;20041;-70
2023/11/08 03:41:26;;;;;;;4.78;1.50;;;9.20;99.90;;;;;;5017361;28;20014;-73
2023/11/08 03:43:52;;;;;;;3.78;1.98;;;9.20;99.90;;;;;;5019009;28;20061;-70
2023/11/08 03:46:18;;;;;;;5.65;2.63;;;9.20;99.90;;;;;;5018341;28;20393;-71
2023/11/08 03:48:44;;;;;;;4.57;1.92;;;9.10;99.90;;;;;;5023157;28;20022;-71
2023/11/08 03:51:11;;;;;;;3.08;1.50;;;9.20;99.90;;;;;;5015477;28;20026;-70
2023/11/08 03:53:37;;;;;;;6.97;2.17;;;9.10;99.90;;;;;;5017923;28;21385;-70
2023/11/08 03:56:04;;;;;;;5.10;1.70;;;9.20;99.90;;;;;;5022138;28;20029;-71
2023/11/08 03:58:29;;;;;;;6.88;2.20;;;9.20;99.90;;;;;;5012940;28;20061;-71
2023/11/08 04:00:55;;;;;;;9.27;2.28;;;9.10;99.90;;;;;;5018556;28;20068;-70
2023/11/08 04:03:21;;;;;;;8.95;2.20;;;9.10;99.90;;;;;;5026454;28;20026;-70
2023/11/08 04:05:47;;;;;;;3.25;1.70;;;9.10;99.90;;;;;;5016345;28;20054;-71
2023/11/08 04:08:12;;;;;;;9.40;2.05;;;9.00;99.90;;;;;;5016716;28;20033;-70
2023/11/08 04:10:38;;;;;;;6.68;2.33;;;9.00;99.90;;;;;;5022761;28;20393;-70
2023/11/08 04:13:04;;;;;;;6.00;1.90;;;9.10;99.90;;;;;;5020128;28;20034;-70
2023/11/08 04:15:29;;;;;;;6.25;1.92;;;9.10;99.90;;;;;;5020559;28;20036;-70
2023/11/08 04:17:56;;;;;;;5.57;2.25;;;9.20;99.90;;;;;;5017233;28;20041;-70
2023/11/08 04:20:21;;;;;;;7.57;2.20;;;9.10;99.90;;;;;;5015609;28;20134;-70
2023/11/08 04:22:47;;;;;;;6.47;2.38;;;9.10;99.90;;;;;;5018007;28;20467;-70
2023/11/08 04:25:15;;;;;;;8.32;2.60;;;9.10;99.90;;;;;;5019462;28;20791;-70
2023/11/08 04:27:41;;;;;;;5.22;2.25;;;9.00;99.90;;;;;;5017619;28;20140;-70
2023/11/08 04:30:08;;;;;;;8.50;3.05;;;9.00;99.90;;;;;;5011785;28;20105;-70
2023/11/08 04:32:34;;;;;;;6.63;2.60;;;9.00;99.90;;;;;;5019584;28;20039;-70
2023/11/08 04:35:01;;;;;;;4.90;2.42;;;9.00;99.90;;;;;;5023373;28;20029;-71
2023/11/08 04:37:27;;;;;;;8.50;2.10;;;9.00;99.90;;;;;;5020195;28;20034;-72
2023/11/08 04:39:53;;;;;;;8.52;2.22;;;9.00;99.90;;;;;;5019813;28;20179;-71
2023/11/08 04:42:19;;;;;;;7.22;2.50;;;9.00;99.90;;;;;;5026046;28;20563;-70
2023/11/08 04:44:46;;;;;;;8.68;2.50;;;9.00;99.90;;;;;;5015258;28;20030;-71
2023/11/08 04:47:17;;;;;;;7.22;2.78;;;9.00;99.90;;;;;;5021003;28;20117;-70
2023/11/08 04:49:44;;;;;;;4.53;2.43;;;9.00;99.90;;;;;;5025468;28;20037;-72
2023/11/08 04:52:10;;;;;;;6.90;2.38;;;9.00;99.90;;;;;;5020082;28;20124;-73
2023/11/08 04:54:37;;;;;;;7.38;2.33;;;9.00;99.90;;;;;;5024784;28;20064;-70
2023/11/08 04:57:02;;;;;;;7.28;2.33;;;9.00;99.90;;;;;;5023926;27;20026;-70
2023/11/08 04:59:29;;;;;;;6.80;2.60;;;9.00;99.90;;;;;;5021971;28;20033;-70
2023/11/08 05:01:54;;;;;;;6.70;2.50;;;8.90;99.90;;;;;;5019357;28;20022;-70
2023/11/08 05:04:20;;;;;;;7.45;2.25;;;9.00;99.90;;;;;;5026464;28;20078;-71
2023/11/08 05:06:45;;;;;;;8.32;2.60;;;9.10;99.90;;;;;;5020296;28;20436;-70
2023/11/08 05:09:15;;;;;;;11.55;2.55;;;9.10;99.90;;;;;;5020251;28;20078;-70
2023/11/08 05:11:41;;;;;;;11.10;3.03;;;9.00;99.90;;;;;;5017988;28;20112;-71
2023/11/08 05:14:07;;;;;;;5.82;2.30;;;9.10;99.90;;;;;;5029270;28;20129;-70
2023/11/08 05:16:33;;;;;;;5.75;2.08;;;9.10;99.90;;;;;;5020166;28;20104;-70
2023/11/08 05:18:58;;;;;;;6.93;2.47;;;9.10;99.90;;;;;;5016656;28;20480;-71
2023/11/08 05:21:26;;;;;;;9.18;2.50;;;9.10;99.90;;;;;;5015166;28;20496;-71
2023/11/08 05:23:52;;;;;;;8.48;2.38;;;9.20;99.90;;;;;;5020768;28;20068;-70
2023/11/08 05:26:19;;;;;;;11.55;2.25;;;9.20;99.90;;;;;;5020789;28;20030;-70
2023/11/08 05:28:45;;;;;;;10.32;2.20;;;9.20;99.90;;;;;;5021669;28;20109;-71
2023/11/08 05:31:11;;;;;;;7.30;2.47;;;9.20;99.90;;;;;;5027433;28;20108;-70
2023/11/08 05:33:40;;;;;;;10.90;2.20;;;9.10;99.90;;;;;;5020736;28;20044;-73
2023/11/08 05:36:07;;;;;;;9.95;2.58;;;9.20;99.90;;;;;;5020755;28;20052;-70
2023/11/08 05:38:33;;;;;;;6.10;2.08;;;9.20;99.90;;;;;;5027883;28;20038;-70
2023/11/08 05:41:01;;;;;;;8.75;2.78;;;9.10;99.90;;;;;;5023819;28;20466;-70
2023/11/08 05:43:27;;;;;;;7.70;2.35;;;9.10;99.90;;;;;;5022380;28;20030;-70
2023/11/08 05:45:55;;;;;;;6.00;2.38;;;9.20;99.90;;;;;;5019011;28;20440;-70
2023/11/08 05:48:21;;;;;;;10.18;3.30;;;9.30;99.90;;;;;;5023935;28;20022;-70
2023/11/08 05:50:46;;;;;;;7.07;2.40;;;9.20;99.90;;;;;;5023945;28;20148;-71
2023/11/08 05:53:17;;;;;;;10.20;3.08;;;9.30;99.90;;;;;;5030663;27;20098;-70
2023/11/08 05:55:42;;;;;;;7.05;2.80;;;9.30;99.90;;;;;;5024919;28;20401;-70
2023/11/08 05:58:08;;;;;;;6.85;2.20;;;9.30;99.90;;;;;;5020147;28;20025;-70
2023/11/08 06:00:34;;;;;;;6.80;2.33;;;9.30;99.90;;;;;;5018825;28;20489;-69
2023/11/08 06:03:01;;;;;;;7.07;2.47;;;9.30;99.90;;;;;;5023957;28;20030;-70
2023/11/08 06:05:29;;;;;;;9.13;2.60;;;9.40;99.90;;;;;;5018147;28;20052;-69
2023/11/08 06:07:56;;;;;;;9.57;2.63;;;9.30;99.90;;;;;;5019166;28;20052;-71
2023/11/08 06:10:22;;;;;;;8.02;3.00;;;9.30;99.90;;;;;;5020547;28;20025;-71
2023/11/08 06:12:48;;;;;;;8.90;2.67;;;9.40;99.90;;;;;;5025292;28;20045;-70
2023/11/08 06:15:14;;;;;;;7.30;3.15;;;9.50;99.90;;;;;;5021617;28;20022;-70
2023/11/08 06:17:40;;;;;;;11.65;2.95;;;9.40;99.90;;;;;;5020062;28;20211;-70
2023/11/08 06:20:09;;;;;;;8.88;2.95;;;9.50;99.90;;;;;;5022568;28;20053;-70
2023/11/08 06:22:35;;;;;;;9.48;2.97;;;9.50;99.90;;;;;;5021291;28;20090;-70
2023/11/08 06:25:00;;;;;;;14.13;3.25;;;9.50;99.90;;;;;;5019691;27;20060;-71
2023/11/08 06:27:26;;;;;;;10.07;2.80;;;9.50;99.90;;;;;;5020524;28;20462;-70
2023/11/08 06:29:52;;;;;;;7.55;3.35;;;9.40;99.90;;;;;;5020390;28;20513;-70
2023/11/08 06:32:20;;;;;;;12.02;3.20;;;9.50;99.90;;;;;;5026812;28;20580;-70
2023/11/08 06:34:46;;;;;;;12.60;3.70;;;9.40;99.90;;;;;;5020964;28;20065;-70
2023/11/08 06:37:13;;;;;;;14.75;3.45;;;9.50;99.90;;;;;;5013082;28;20021;-70
2023/11/08 06:39:39;;;;;;;8.93;2.80;;;9.50;99.90;;;;;;5020048;28;20026;-70
2023/11/08 06:42:05;;;;;;;14.25;4.10;;;9.50;99.90;;;;;;5016237;28;20026;-71
2023/11/08 06:44:31;;;;;;;11.27;3.92;;;9.50;99.90;;;;;;5020672;28;20029;-70
2023/11/08 06:46:57;;;;;;;9.82;2.90;;;9.50;99.90;;;;;;5019938;28;20412;-71
2023/11/08 06:49:23;;;;;;;7.05;3.15;;;9.60;99.90;;;;;;5017294;28;20056;-71
2023/11/08 06:51:48;;;;;;;19.17;4.40;;;9.50;99.90;;;;;;5016550;28;20034;-72
2023/11/08 06:54:14;;;;;;;9.70;3.03;;;9.40;99.90;;;;;;5015841;28;20042;-71
2023/11/08 06:56:40;;;;;;;11.27;3.60;;;9.40;99.90;;;;;;5012971;28;20030;-71
2023/11/08 06:59:06;;;;;;;18.00;4.05;;;9.40;99.90;;;;;;5022241;28;20034;-72
2023/11/08 07:01:34;;;;;;;10.38;3.60;;;9.40;99.90;;;;;;5022560;28;20021;-71
2023/11/08 07:04:00;;;;;;;11.85;3.42;;;9.50;99.90;;;;;;5024143;27;20018;-71
2023/11/08 07:06:26;;;;;;;11.75;3.90;;;9.40;99.90;;;;;;5027611;27;20086;-71
2023/11/08 07:08:52;;;;;;;14.63;4.00;;;9.40;99.90;;;;;;5044009;27;20477;-71
2023/11/08 07:11:18;;;;;;;12.23;3.92;;;9.40;99.90;;;;;;5019624;28;20030;-71
2023/11/08 07:13:44;;;;;;;12.40;4.38;;;9.40;99.90;;;;;;5020371;28;20511;-71
2023/11/08 07:16:10;;;;;;;11.60;4.22;;;9.40;99.90;;;;;;5028659;27;20021;-70
2023/11/08 07:18:35;;;;;;;10.77;3.92;;;9.40;99.90;;;;;;5022074;28;20925;-70
2023/11/08 07:21:01;;;;;;;10.40;3.90;;;9.40;99.90;;;;;;5024915;28;20036;-71
2023/11/08 07:23:27;;;;;;;13.10;4.85;;;9.30;99.90;;;;;;5027344;28;20025;-71
2023/11/08 07:25:52;;;;;;;13.07;3.25;;;9.40;99.90;;;;;;5028292;28;20070;-72
2023/11/08 07:28:18;;;;;;;13.25;3.65;;;9.50;99.90;;;;;;5024808;28;20394;-70
2023/11/08 07:30:45;;;;;;;15.13;4.05;;;9.40;99.90;;;;;;5018602;28;20033;-72
2023/11/08 07:33:11;;;;;;;10.90;3.78;;;9.50;99.90;;;;;;5037338;27;20034;-72
2023/11/08 07:35:38;;;;;;;13.60;4.47;;;9.50;99.90;;;;;;5060374;27;20025;-71
2023/11/08 07:38:05;;;;;;;10.65;3.90;;;9.40;99.90;;;;;;5046111;27;20028;-71
2023/11/08 07:40:30;;;;;;;17.45;4.18;;;9.40;99.90;;;;;;5016493;28;20027;-71
2023/11/08 07:42:56;;;;;;;13.32;4.40;;;9.50;99.90;;;;;;5053490;27;20104;-71
2023/11/08 07:45:22;;;;;;;10.60;3.83;;;9.50;99.90;;;;;;5041150;27;20485;-72
2023/11/08 07:47:47;;;;;;;12.55;3.55;;;9.40;99.90;;;;;;5063440;27;20083;-72
2023/11/08 07:50:14;;;;;;;13.82;3.72;;;9.50;99.90;;;;;;5014309;28;20026;-71
2023/11/08 07:52:42;;;;;;;11.85;3.47;;;9.60;99.90;;;;;;5026096;28;20124;-72
2023/11/08 07:55:11;;;;;;;16.25;3.70;;;9.60;99.90;;;;;;5027046;28;20070;-73
2023/11/08 07:57:39;;;;;;;13.60;4.35;;;9.60;99.90;;;;;;5018449;28;20037;-71
2023/11/08 08:00:08;;;;;;;10.57;3.88;;;9.60;99.90;;;;;;5026496;28;20070;-71
2023/11/08 08:02:34;;;;;;;12.35;3.75;;;9.70;99.90;;;;;;5028875;28;20071;-71
2023/11/08 08:05:00;;;;;;;11.70;3.60;;;9.70;99.90;;;;;;5027150;28;20034;-72
2023/11/08 08:07:27;;;;;;;14.07;3.83;;;9.70;99.90;;;;;;5019806;28;20141;-72
2023/11/08 08:09:54;;;;;;;12.20;3.88;;;9.70;99.90;;;;;;5024985;28;20069;-71
2023/11/08 08:12:20;;;;;;;11.27;4.47;;;9.70;99.90;;;;;;5025140;27;20026;-75
2023/11/08 08:14:45;;;;;;;9.52;4.30;;;9.80;99.90;;;;;;5025087;28;20466;-72
2023/11/08 08:17:12;;;;;;;14.80;4.28;;;9.80;99.90;;;;;;5026705;28;20458;-72
2023/11/08 08:19:38;;;;;;;10.30;3.88;;;9.80;99.90;;;;;;5030941;28;20033;-72
2023/11/08 08:22:05;;;;;;;12.23;4.15;;;9.80;99.90;;;;;;5023410;27;20390;-71
2023/11/08 08:24:31;;;;;;;12.15;3.95;;;10.00;99.90;;;;;;5027392;28;20102;-72
2023/11/08 08:26:58;;;;;;;14.20;4.28;;;10.00;99.90;;;;;;5022832;28;20461;-71
2023/11/08 08:29:26;;;;;;;8.30;3.60;;;10.10;99.90;;;;;;5024304;28;20041;-72
2023/11/08 08:31:52;;;;;;;8.75;3.50;;;10.20;99.90;;;;;;5025298;28;20022;-73
2023/11/08 08:34:18;;;;;;;11.65;3.72;;;10.20;99.90;;;;;;5021619;27;20034;-72
2023/11/08 08:36:46;;;;;;;16.90;4.03;;;10.20;99.90;;;;;;5022597;28;20022;-76
2023/11/08 08:39:15;;;;;;;12.00;3.45;;;10.20;99.90;;;;;;5028923;28;20041;-71
2023/11/08 08:41:45;;;;;;;10.20;4.03;;;10.30;99.90;;;;;;5025569;27;20082;-72
2023/11/08 08:44:12;;;;;;;9.82;3.75;;;10.40;99.90;;;;;;5019493;28;20022;-74
2023/11/08 08:46:37;;;;;;;9.23;3.67;;;10.40;99.90;;;;;;5017705;28;20430;-75
2023/11/08 08:49:03;;;;;;;12.10;3.65;;;10.40;99.90;;;;;;5016465;28;20097;-72
2023/11/08 08:51:29;;;;;;;11.07;3.72;;;10.50;99.90;;;;;;5024074;28;20108;-72
2023/11/08 08:53:55;;;;;;;13.73;3.45;;;10.40;99.90;;;;;;5026936;28;20026;-76
2023/11/08 08:56:22;;;;;;;16.00;4.03;;;10.50;99.90;;;;;;5024770;28;20078;-74
2023/11/08 08:58:49;;;;;;;13.82;3.70;;;10.50;99.90;;;;;;5024251;28;20523;-73
2023/11/08 09:01:18;;;;;;;15.10;3.75;;;10.50;99.90;;;;;;5028830;28;20026;-72
2023/11/08 09:03:44;;;;;;;11.82;3.42;;;10.60;99.90;;;;;;5022419;28;20033;-72
2023/11/08 09:06:10;;;;;;;10.20;3.05;;;10.60;99.90;;;;;;5028529;28;20021;-72
2023/11/08 09:08:36;;;;;;;11.77;3.05;;;10.60;99.90;;;;;;5021212;28;20512;-71
2023/11/08 09:11:03;;;;;;;10.27;3.10;;;10.70;99.90;;;;;;5027941;28;20026;-71
2023/11/08 09:13:29;;;;;;;8.23;3.35;;;10.70;99.90;;;;;;5035716;27;20029;-71
2023/11/08 09:15:55;;;;;;;11.45;3.17;;;10.80;99.90;;;;;;5023119;28;20034;-71
2023/11/08 09:18:21;;;;;;;8.13;2.75;;;10.80;99.90;;;;;;5016803;28;20086;-71
2023/11/08 09:20:48;;;;;;;12.80;3.22;;;10.80;99.90;;;;;;5024899;28;20025;-71
2023/11/08 09:23:14;;;;;;;14.77;2.65;;;10.80;99.90;;;;;;5025665;28;20029;-74
2023/11/08 09:25:40;;;;;;;10.40;2.60;;;11.00;99.90;;;;;;5063250;27;20401;-73
2023/11/08 09:28:06;;;;;;;11.52;2.90;;;11.00;99.90;;;;;;5032150;27;20040;-72
2023/11/08 09:30:33;;;;;;;8.63;2.65;;;11.10;99.90;;;;;;5029504;28;20029;-72
2023/11/08 09:32:59;;;;;;;8.05;2.63;;;11.10;99.90;;;;;;5025905;27;20026;-72
2023/11/08 09:35:25;;;;;;;5.68;2.47;;;11.10;99.90;;;;;;5033684;27;20078;-71
2023/11/08 09:37:55;;;;;;;13.40;2.47;;;11.00;99.90;;;;;;5017109;28;20034;-73
2023/11/08 09:40:21;;;;;;;8.02;2.42;;;11.10;99.90;;;;;;5044813;27;20038;-75
2023/11/08 09:42:48;;;;;;;6.28;2.58;;;11.20;99.90;;;;;;5024118;27;20026;-75
2023/11/08 09:45:17;;;;;;;12.43;2.47;;;11.20;99.90;;;;;;5026372;28;20030;-73
2023/11/08 09:47:43;;;;;;;11.00;2.25;;;11.20;99.90;;;;;;5034584;27;20030;-75
2023/11/08 09:50:09;;;;;;;8.32;2.70;;;11.30;99.90;;;;;;5023364;28;20040;-74
2023/11/08 09:52:37;;;;;;;10.43;2.67;;;11.30;99.90;;;;;;5025695;27;20116;-74
2023/11/08 09:55:05;;;;;;;7.97;2.33;;;11.40;99.90;;;;;;5025277;28;20034;-73
2023/11/08 09:57:33;;;;;;;8.88;2.90;;;11.50;99.90;;;;;;5026432;27;20078;-74
2023/11/08 09:59:59;;;;;;;9.75;2.90;;;11.40;99.90;;;;;;5021844;28;20052;-73
2023/11/08 10:02:27;;;;;;;9.10;2.78;;;11.50;99.90;;;;;;5021402;28;20065;-73
2023/11/08 10:04:53;;;;;;;6.47;2.45;;;11.50;99.90;;;;;;5025595;28;20075;-74
2023/11/08 10:07:19;;;;;;;8.55;2.17;;;11.50;99.90;;;;;;5022614;28;20473;-75
2023/11/08 10:09:45;;;;;;;9.82;2.40;;;11.50;99.90;;;;;;5017342;28;20029;-73
2023/11/08 10:12:21;;;;;;;11.88;2.47;;;11.50;99.90;;;;;;5026785;28;20112;-75
2023/11/08 10:15:02;;;;;;;9.45;2.65;;;11.50;99.90;;;;;;5027888;28;20571;-73
2023/11/08 10:17:38;;;;;;;14.30;3.92;;;11.60;99.90;;;;;;5025744;28;20022;-75
2023/11/08 10:20:08;;;;;;;10.02;2.78;;;11.60;99.90;;;;;;5022712;28;20025;-74
2023/11/08 10:22:35;;;;;;;8.45;2.10;;;11.60;99.90;;;;;;5017763;28;20021;-72
2023/11/08 10:25:02;;;;;;;11.10;2.72;;;11.60;99.90;;;;;;5021080;28;20025;-74
2023/11/08 10:27:29;;;;;;;8.38;3.22;;;11.70;99.90;;;;;;5025566;28;20053;-73
2023/11/08 10:30:15;;;;;;;6.35;2.45;;;11.70;99.90;;;;;;5020916;28;20112;-73
2023/11/08 10:32:43;;;;;;;7.72;2.03;;;11.70;99.90;;;;;;5015765;28;20057;-73
2023/11/08 10:35:14;;;;;;;7.72;1.98;;;11.70;99.90;;;;;;5022602;27;20397;-73
2023/11/08 10:37:40;;;;;;;7.32;2.35;;;11.80;99.90;;;;;;5023126;28;20033;-72
2023/11/08 10:40:08;;;;;;;6.43;1.90;;;11.90;99.90;;;;;;5022559;27;20024;-72
2023/11/08 10:42:34;;;;;;;7.40;2.25;;;11.90;99.90;;;;;;5017505;28;20073;-72
2023/11/08 10:45:09;;;;;;;14.95;3.05;;;11.90;99.90;;;;;;5023951;27;20532;-72
2023/11/08 10:47:39;;;;;;;13.32;2.65;;;12.00;99.90;;;;;;5019235;28;20017;-73
2023/11/08 10:50:06;;;;;;;10.02;2.58;;;12.00;99.90;;;;;;5024959;28;20052;-73
2023/11/08 10:52:33;;;;;;;7.95;2.38;;;12.00;99.90;;;;;;5022879;28;20153;-73
2023/11/08 10:54:59;;;;;;;9.02;1.95;;;12.10;99.90;;;;;;5020491;28;20053;-74
2023/11/08 10:57:29;;;;;;;5.43;2.25;;;12.20;99.90;;;;;;5021325;28;20026;-73
2023/11/08 11:00:03;;;;;;;8.10;2.22;;;12.20;99.90;;;;;;5012326;28;20034;-73
2023/11/08 11:02:45;;;;;;;7.38;2.40;;;12.30;99.90;;;;;;5022444;27;20059;-71
2023/11/08 11:05:14;;;;;;;10.50;1.92;;;12.40;99.90;;;;;;5025959;28;20048;-73
2023/11/08 11:07:42;;;;;;;4.05;2.25;;;12.40;99.90;;;;;;5018304;28;20030;-74
2023/11/08 11:10:10;;;;;;;9.90;1.80;;;12.40;99.90;;;;;;5015528;28;20072;-72
2023/11/08 11:13:02;;;;;;;5.20;1.80;;;12.50;99.90;;;;;;5025702;28;20488;-72
2023/11/08 11:15:49;;;;;;;5.00;1.92;;;12.70;99.90;;;;;;5029352;27;20022;-73
2023/11/08 11:18:20;;;;;;;4.97;1.83;;;12.80;99.90;;;;;;5021811;28;20033;-73
2023/11/08 11:20:54;;;;;;;5.82;1.88;;;12.80;99.90;;;;;;5017557;28;20038;-73
2023/11/08 11:23:35;;;;;;;7.03;1.98;;;12.80;99.90;;;;;;5020706;28;20026;-71
2023/11/08 11:26:02;;;;;;;6.78;1.98;;;12.80;99.90;;;;;;5017572;28;20114;-75
2023/11/08 11:28:51;;;;;;;10.32;1.95;;;12.80;99.90;;;;;;5028319;27;20034;-72
2023/11/08 11:31:46;;;;;;;6.63;1.60;;;12.80;99.90;;;;;;5024489;28;20514;-72
2023/11/08 11:34:20;;;;;;;6.03;1.98;;;12.80;99.90;;;;;;5025617;28;20056;-71
2023/11/08 11:39:34;;;;;;;3.95;1.70;;;12.80;99.90;;;;;;5029857;28;20022;-71
2023/11/08 11:42:23;;;;;;;8.80;1.88;;;12.80;99.90;;;;;;5022039;28;20036;-73
2023/11/08 11:44:51;;;;;;;8.00;1.95;;;12.70;99.90;;;;;;4991872;27;20505;-72
2023/11/08 11:47:22;;;;;;;9.20;2.20;;;12.80;99.90;;;;;;5017100;28;20038;-72
2023/11/08 11:49:51;;;;;;;7.75;1.60;;;12.80;99.90;;;;;;5021103;28;20051;-72
2023/11/08 11:52:19;;;;;;;9.18;1.70;;;12.80;99.90;;;;;;5022366;28;20109;-71
2023/11/08 11:54:51;;;;;;;5.10;1.83;;;12.90;99.90;;;;;;5027500;28;20107;-73
2023/11/08 11:57:18;;;;;;;6.63;1.83;;;12.70;99.90;;;;;;5022932;28;20029;-73
2023/11/08 11:59:49;;;;;;;7.30;2.25;;;12.70;99.90;;;;;;5027868;28;20044;-72
2023/11/08 12:02:15;;;;;;;13.73;1.98;;;12.70;99.90;;;;;;5024041;28;20470;-73
2023/11/08 12:04:42;;;;;;;4.28;1.38;;;12.70;99.90;;;;;;5023170;28;20029;-72
2023/11/08 12:07:10;;;;;;;10.32;1.80;;;12.80;99.90;;;;;;5024851;28;20025;-73
2023/11/08 12:09:39;;;;;;;7.20;1.73;;;12.70;99.90;;;;;;5021916;28;20056;-72
2023/11/08 12:12:06;;;;;;;6.80;2.35;;;12.70;99.90;;;;;;5025634;28;20045;-76
2023/11/08 12:14:33;;;;;;;7.70;2.00;;;12.70;99.90;;;;;;5027611;28;20081;-72
2023/11/08 12:17:02;;;;;;;7.22;2.03;;;12.70;99.90;;;;;;5023780;28;20022;-73
2023/11/08 12:19:30;;;;;;;8.02;2.83;;;12.80;99.90;;;;;;5024550;28;20047;-72
2023/11/08 12:21:56;;;;;;;7.38;3.35;;;12.70;99.90;;;;;;5024278;28;20074;-73
2023/11/08 12:24:22;;;;;;;8.00;3.55;;;12.60;99.90;;;;;;5024153;28;20068;-72
2023/11/08 12:26:48;;;;;;;4.18;1.60;;;12.60;99.90;;;;;;5019599;28;20052;-72
2023/11/08 12:29:16;;;;;;;5.65;2.67;;;12.70;99.90;;;;;;5023985;28;20477;-73
2023/11/08 12:31:45;;;;;;;9.60;2.38;;;12.60;99.90;;;;;;5021984;28;20022;-73
2023/11/08 12:34:11;;;;;;;7.88;3.22;;;12.60;99.90;;;;;;5017960;28;20037;-73
2023/11/08 12:36:38;;;;;;;4.95;1.60;;;12.70;99.90;;;;;;5016911;28;20022;-72
2023/11/08 12:39:13;;;;;;;10.45;5.63;;;12.60;99.90;;;;;;5014493;28;20018;-72
2023/11/08 12:41:57;;;;;;;9.48;2.95;;;12.80;99.90;;;;;;5022177;28;20350;-72
2023/11/08 12:44:24;;;;;;;4.35;1.70;;;12.70;99.90;;;;;;5021620;28;20493;-73
2023/11/08 12:46:53;;;;;;;3.95;1.98;;;12.80;99.90;;;;;;5025308;28;20060;-72
2023/11/08 12:49:23;;;;;;;6.00;2.63;;;12.80;99.90;;;;;;5023355;28;20049;-73
2023/11/08 12:51:49;;;;;;;6.65;3.28;;;12.80;99.90;;;;;;5029080;28;20037;-76
2023/11/08 12:54:17;;;;;;;6.88;2.65;;;12.80;99.90;;;;;;5023513;28;20117;-72